Skip Navigation Links
NOAA logo - Click to go to the NOAA homepage
NOAA's National Weather Service
Alaska Aviation Weather Unit
  NWS logo - Click to go to the NWS homepage
Left Navbar Graphic     23 AKDT = 07 GMT

   
NOAA is celebrating 200 years of science, service, and stewardship. Visit the NOAA 200th celebration Web site to learn more.
USA.gov is the U.S. Government's official Web portal to all Federal, state and local government Web resources and services.
Facebook
NWS on Facebook

AAWU Home :: Display TAF Add Bookmark
METAR PASX 240116Z AUTO 04007KT 10SM OVC080 11/M03 A2964 RMK AO1=

METAR PASX 240136Z AUTO 05006KT 10SM OVC070 12/M03 A2964 RMK AO1=

METAR PASX 240156Z AUTO 09011G14KT 10SM FEW050 BKN070 OVC100 12/M04
     A2963 RMK AO1=

METAR PASX 240216Z AUTO 08008KT 10SM BKN060 OVC100 12/M03 A2963 RMK
     AO1=

METAR PASX 240236Z AUTO 07011KT 10SM BKN060 OVC100 12/M04 A2963 RMK
     AO1=

METAR PASX 240256Z AUTO 09008KT 10SM BKN060 BKN120 11/M03 A2963 RMK AO1
     57010=

METAR PASX 240316Z AUTO 08009KT 10SM FEW060 BKN100 BKN120 11/M03 A2963
     RMK AO1=

METAR PASX 240336Z AUTO 09009KT 10SM OVC090 11/M03 A2963 RMK AO1=

METAR PASX 240356Z AUTO 08008KT 10SM BKN080 OVC100 11/M03 A2963 RMK
     AO1=

METAR PASX 240416Z AUTO 07008KT 10SM FEW080 OVC100 11/M03 A2962 RMK
 AO1=

METAR PASX 240436Z AUTO 09009KT 10SM BKN090 OVC110 10/M03 A2962 RMK
 AO1=

METAR PASX 240456Z AUTO 08006KT 10SM SCT075 OVC090 10/M03 A2962 RMK
     AO1=

METAR PASX 240516Z AUTO 08006KT 10SM OVC075 09/M03 A2963 RMK AO1=

METAR PASX 240536Z AUTO 09005KT 10SM SCT075 OVC090 09/M03 A2963 RMK
 AO1=

METAR PASX 240556Z AUTO 09004KT 10SM SCT070 OVC090 09/M03 A2963 RMK AO1
     10120 20090 54000=

METAR PASX 240616Z AUTO 10003KT 10SM OVC070 08/M03 A2964 RMK AO1=

METAR PASX 240636Z AUTO 00000KT 10SM SCT060 BKN065 OVC080 08/M03 A2964
     RMK AO1=

METAR PASX 240656Z AUTO 00000KT 10SM FEW060 BKN080 OVC090 08/M03
 A2964 RMK AO1=


NOAA's National Weather Service
Alaska Aviation Weather Unit
6930 Sand Lake Road
Anchorage, AK 99502-1845
Disclaimer
Credits
Glossary
Privacy Policy
About Us
Career Opportunities
Contact AAWU Internet Services Site last modified: April, 17th 2012